createdAt,value
2024-02-24T00:00:31.110Z,90.49
2024-02-24T00:02:57.931Z,93.95
2024-02-24T00:05:28.359Z,93.05
2024-02-24T00:07:55.092Z,92.74
2024-02-24T00:10:22.491Z,92.13
2024-02-24T00:12:49.723Z,90.79
2024-02-24T00:15:16.596Z,91.35
2024-02-24T00:17:44.221Z,92.59
2024-02-24T00:20:12.406Z,94.22
2024-02-24T00:22:39.238Z,95.05
2024-02-24T00:25:06.533Z,94.94
2024-02-24T00:27:33.248Z,93.69
2024-02-24T00:30:00.643Z,91.80
2024-02-24T00:32:27.671Z,94.40
2024-02-24T00:34:54.389Z,93.80
2024-02-24T00:37:21.115Z,93.62
2024-02-24T00:39:47.839Z,94.28
2024-02-24T00:42:14.562Z,93.33
2024-02-24T00:44:41.355Z,92.49
2024-02-24T00:47:08.216Z,93.29
2024-02-24T00:49:34.871Z,100.00
2024-02-24T00:52:01.647Z,100.00
2024-02-24T00:54:28.371Z,100.00
2024-02-24T00:56:55.050Z,98.14
2024-02-24T00:59:21.899Z,96.80
2024-02-24T01:01:49.434Z,95.56
2024-02-24T01:04:16.839Z,99.15
2024-02-24T01:06:43.505Z,96.96
2024-02-24T01:09:10.177Z,94.49
2024-02-24T01:11:36.953Z,94.88
2024-02-24T01:14:03.846Z,94.66
2024-02-24T01:16:31.882Z,94.33
2024-02-24T01:18:58.633Z,97.75
2024-02-24T01:21:25.334Z,100.00
2024-02-24T01:23:52.423Z,97.55
2024-02-24T01:26:19.189Z,96.18
2024-02-24T01:28:49.292Z,93.29
2024-02-24T01:31:16.025Z,97.40
2024-02-24T01:33:42.825Z,100.00
2024-02-24T01:36:09.568Z,100.00
2024-02-24T01:38:36.347Z,95.34
2024-02-24T01:41:03.217Z,96.09
2024-02-24T01:43:30.680Z,96.94
2024-02-24T01:45:58.214Z,97.08
2024-02-24T01:48:25.181Z,96.32
2024-02-24T01:50:52.051Z,96.05
2024-02-24T01:53:18.757Z,96.33
2024-02-24T01:55:45.501Z,97.04
2024-02-24T01:58:12.466Z,95.21
2024-02-24T02:00:39.226Z,96.19
2024-02-24T02:03:06.032Z,93.57
2024-02-24T02:05:32.735Z,93.69
2024-02-24T02:07:59.470Z,93.43
2024-02-24T02:10:26.231Z,95.76
2024-02-24T02:12:53.139Z,96.58
2024-02-24T02:15:19.900Z,96.89
2024-02-24T02:17:46.720Z,95.34
2024-02-24T02:20:13.509Z,94.14
2024-02-24T02:22:40.283Z,93.96
2024-02-24T02:25:07.234Z,94.86
2024-02-24T02:27:33.913Z,96.76
2024-02-24T02:30:02.713Z,100.00
2024-02-24T02:32:29.627Z,95.80
2024-02-24T02:34:56.535Z,93.42
2024-02-24T02:37:23.186Z,93.62
2024-02-24T02:39:49.948Z,93.30
2024-02-24T02:42:16.707Z,96.02
2024-02-24T02:44:43.446Z,98.62
2024-02-24T02:47:17.648Z,99.18
2024-02-24T02:49:49.882Z,99.11
2024-02-24T02:52:16.615Z,96.34
2024-02-24T02:54:43.279Z,96.92
2024-02-24T02:57:09.971Z,93.26
2024-02-24T02:59:36.823Z,95.00
2024-02-24T03:02:03.821Z,95.92
2024-02-24T03:04:30.557Z,95.14
2024-02-24T03:06:57.352Z,95.58
2024-02-24T03:09:24.025Z,96.19
2024-02-24T03:11:50.922Z,96.78
2024-02-24T03:14:17.774Z,95.81
2024-02-24T03:16:44.455Z,95.46
2024-02-24T03:19:11.306Z,96.11
2024-02-24T03:21:38.018Z,92.04
2024-02-24T03:24:07.114Z,94.95
2024-02-24T03:26:34.196Z,96.04
2024-02-24T03:29:00.883Z,97.85
2024-02-24T03:31:27.529Z,98.61
2024-02-24T03:33:54.922Z,97.20
2024-02-24T03:36:21.815Z,96.77
2024-02-24T03:38:48.547Z,96.61
2024-02-24T03:41:15.311Z,98.27
2024-02-24T03:43:42.087Z,100.00
2024-02-24T03:46:08.856Z,100.00
2024-02-24T03:48:35.853Z,100.00
2024-02-24T03:51:02.725Z,100.00
2024-02-24T03:53:32.498Z,100.00
2024-02-24T03:55:59.445Z,100.00
2024-02-24T03:58:26.229Z,100.00
2024-02-24T04:00:53.262Z,98.47
2024-02-24T04:03:20.356Z,97.91
2024-02-24T04:05:50.118Z,98.02
2024-02-24T04:08:17.091Z,98.33
2024-02-24T04:10:47.015Z,97.45
2024-02-24T04:13:13.789Z,97.68
2024-02-24T04:15:46.678Z,97.21
2024-02-24T04:18:14.063Z,96.55
2024-02-24T04:20:41.597Z,94.53
2024-02-24T04:23:08.769Z,95.52
2024-02-24T04:25:35.451Z,95.85
2024-02-24T04:28:02.192Z,96.70
2024-02-24T04:30:28.981Z,98.89
2024-02-24T04:32:57.036Z,100.00
2024-02-24T04:35:24.518Z,100.00
2024-02-24T04:37:51.229Z,100.00
2024-02-24T04:40:18.153Z,100.00
2024-02-24T04:42:44.869Z,99.24
2024-02-24T04:45:11.575Z,99.52
2024-02-24T04:47:38.440Z,100.00
2024-02-24T04:50:05.776Z,100.00
2024-02-24T04:52:32.509Z,100.00
2024-02-24T04:54:59.369Z,100.00
2024-02-24T04:57:26.009Z,100.00
2024-02-24T04:59:52.837Z,100.00
2024-02-24T05:02:19.620Z,98.92
2024-02-24T05:04:46.364Z,100.00
2024-02-24T05:07:13.082Z,100.00
2024-02-24T05:09:39.722Z,100.00
2024-02-24T05:12:06.668Z,100.00
2024-02-24T05:14:33.496Z,100.00
2024-02-24T05:17:00.281Z,100.00
2024-02-24T05:19:28.185Z,100.00
2024-02-24T05:21:56.543Z,100.00
2024-02-24T05:24:23.313Z,100.00
2024-02-24T05:26:50.054Z,100.00
2024-02-24T05:29:17.738Z,100.00
2024-02-24T05:31:44.486Z,100.00
2024-02-24T05:34:11.174Z,100.00
2024-02-24T05:36:37.946Z,100.00
2024-02-24T05:39:05.431Z,100.00
2024-02-24T05:41:32.190Z,99.86
2024-02-24T05:43:58.972Z,100.00
2024-02-24T05:46:25.706Z,100.00
2024-02-24T05:48:52.540Z,100.00
2024-02-24T05:51:20.305Z,100.00
2024-02-24T05:53:47.121Z,100.00
2024-02-24T05:56:14.155Z,100.00
2024-02-24T05:58:40.910Z,100.00
2024-02-24T06:01:07.819Z,100.00
2024-02-24T06:03:36.337Z,100.00
2024-02-24T06:06:03.170Z,100.00
2024-02-24T06:08:30.002Z,100.00
2024-02-24T06:10:56.817Z,100.00
2024-02-24T06:13:23.522Z,100.00
2024-02-24T06:15:50.278Z,100.00
2024-02-24T06:18:17.109Z,100.00
2024-02-24T06:20:43.969Z,100.00
2024-02-24T06:23:10.781Z,100.00
2024-02-24T06:25:38.244Z,100.00
2024-02-24T06:28:05.101Z,100.00
2024-02-24T06:30:32.066Z,99.83
2024-02-24T06:32:58.822Z,100.00
2024-02-24T06:35:25.495Z,100.00
2024-02-24T06:37:52.158Z,100.00
2024-02-24T06:40:26.100Z,100.00
2024-02-24T06:43:00.226Z,100.00
2024-02-24T06:45:26.987Z,100.00
2024-02-24T06:47:53.824Z,100.00
2024-02-24T06:50:20.933Z,98.78
2024-02-24T06:52:47.691Z,100.00
2024-02-24T06:55:14.501Z,100.00
2024-02-24T06:57:41.243Z,100.00
2024-02-24T07:00:08.991Z,100.00
2024-02-24T07:02:35.784Z,99.38
2024-02-24T07:05:03.572Z,99.12
2024-02-24T07:07:30.371Z,96.57
2024-02-24T07:09:57.091Z,96.64
2024-02-24T07:12:23.800Z,97.91
2024-02-24T07:14:50.544Z,97.65
2024-02-24T07:17:17.312Z,98.34
2024-02-24T07:19:44.142Z,99.00
2024-02-24T07:22:10.781Z,97.24
2024-02-24T07:24:37.433Z,94.22
2024-02-24T07:27:04.264Z,91.22
2024-02-24T07:29:32.738Z,90.54
2024-02-24T07:31:59.567Z,91.20
2024-02-24T07:34:26.320Z,86.85
2024-02-24T07:36:53.106Z,87.69
2024-02-24T07:39:20.038Z,86.34
2024-02-24T07:41:46.740Z,86.60
2024-02-24T07:44:13.545Z,84.58
2024-02-24T07:46:40.327Z,85.22
2024-02-24T07:49:07.394Z,84.89
2024-02-24T07:51:34.753Z,82.43
2024-02-24T07:54:01.442Z,80.30
2024-02-24T07:56:28.685Z,79.48
2024-02-24T07:58:55.822Z,79.89
2024-02-24T08:01:22.634Z,82.03
2024-02-24T08:03:49.341Z,82.86
2024-02-24T08:06:16.119Z,83.29
2024-02-24T08:08:42.926Z,83.40
2024-02-24T08:11:09.862Z,79.07
2024-02-24T08:13:43.300Z,77.34
2024-02-24T08:16:10.454Z,75.56
2024-02-24T08:18:37.396Z,75.47
2024-02-24T08:21:07.803Z,73.33
2024-02-24T08:23:37.741Z,73.26
2024-02-24T08:26:04.598Z,70.97
2024-02-24T08:28:31.383Z,69.74
2024-02-24T08:31:01.037Z,70.47
2024-02-24T08:33:28.328Z,68.47
2024-02-24T08:35:55.310Z,67.84
2024-02-24T08:38:22.077Z,68.26
2024-02-24T08:40:48.789Z,65.20
2024-02-24T08:43:15.465Z,63.86
2024-02-24T08:45:43.080Z,68.00
2024-02-24T08:48:13.967Z,67.43
2024-02-24T08:50:41.741Z,65.12
2024-02-24T08:53:08.671Z,64.35
2024-02-24T08:55:35.337Z,62.85
2024-02-24T08:58:02.018Z,63.08
2024-02-24T09:00:28.803Z,63.30
2024-02-24T09:02:55.758Z,60.54
2024-02-24T09:05:22.572Z,63.98
2024-02-24T09:07:49.385Z,62.10
2024-02-24T09:10:16.215Z,60.02
2024-02-24T09:12:43.024Z,58.94
2024-02-24T09:15:09.869Z,59.20
2024-02-24T09:17:36.631Z,59.33
2024-02-24T09:20:03.955Z,56.67
2024-02-24T09:22:30.789Z,61.47
2024-02-24T09:24:58.093Z,61.25
2024-02-24T09:27:24.740Z,61.58
2024-02-24T09:29:51.533Z,62.51
2024-02-24T09:32:19.423Z,62.80
2024-02-24T09:34:46.446Z,58.69
2024-02-24T09:37:13.274Z,57.96
2024-02-24T09:39:43.579Z,57.80
2024-02-24T09:42:10.991Z,59.87
2024-02-24T09:44:38.182Z,59.50
2024-02-24T09:47:05.228Z,60.10
2024-02-24T09:49:32.194Z,57.69
2024-02-24T09:52:00.026Z,57.60
2024-02-24T09:54:29.305Z,55.86
2024-02-24T09:56:56.390Z,56.99
2024-02-24T09:59:24.357Z,52.78
2024-02-24T10:01:51.574Z,54.36
2024-02-24T10:04:19.262Z,53.76
2024-02-24T10:06:46.011Z,52.78
2024-02-24T10:09:13.059Z,55.67
2024-02-24T10:11:40.457Z,57.12
2024-02-24T10:14:07.502Z,55.51
2024-02-24T10:16:40.294Z,53.22
2024-02-24T10:19:07.550Z,53.31
2024-02-24T10:21:34.915Z,52.79
2024-02-24T10:24:02.185Z,52.19
2024-02-24T10:26:29.221Z,52.50
2024-02-24T10:28:56.056Z,51.41
2024-02-24T10:31:24.584Z,52.41
2024-02-24T10:33:51.303Z,52.47
2024-02-24T10:36:18.143Z,48.46
2024-02-24T10:38:48.471Z,53.17
2024-02-24T10:41:24.482Z,48.22
2024-02-24T10:44:01.742Z,51.76
2024-02-24T10:46:33.054Z,52.66
2024-02-24T10:48:59.799Z,51.17
2024-02-24T10:51:26.428Z,46.29
2024-02-24T10:53:55.302Z,50.65
2024-02-24T10:56:22.070Z,50.33
2024-02-24T10:58:48.749Z,47.33
2024-02-24T11:01:18.591Z,48.66
2024-02-24T11:03:45.252Z,50.73
2024-02-24T11:06:13.580Z,53.30
2024-02-24T11:08:44.454Z,52.56
2024-02-24T11:11:12.559Z,49.96
2024-02-24T11:13:55.941Z,49.74
2024-02-24T11:16:34.263Z,50.11
2024-02-24T11:19:01.218Z,50.82
2024-02-24T11:22:01.801Z,52.74
2024-02-24T11:24:34.911Z,52.10
2024-02-24T11:27:02.536Z,53.11
2024-02-24T11:29:29.369Z,52.06
2024-02-24T11:32:15.487Z,53.04
2024-02-24T11:34:46.572Z,52.54
2024-02-24T11:37:17.827Z,52.49
2024-02-24T11:39:45.881Z,53.02
2024-02-24T11:42:13.090Z,52.51
2024-02-24T11:44:44.085Z,52.57
2024-02-24T11:47:10.936Z,53.40
2024-02-24T11:49:47.431Z,53.42
2024-02-24T11:52:17.536Z,53.16
2024-02-24T11:54:45.064Z,50.94
2024-02-24T11:57:12.973Z,52.70
2024-02-24T11:59:40.070Z,53.61
2024-02-24T12:02:06.886Z,52.36
2024-02-24T12:04:33.925Z,54.26
2024-02-24T12:07:02.932Z,53.89
2024-02-24T12:09:30.321Z,55.61
2024-02-24T12:11:58.012Z,52.94
2024-02-24T12:14:28.329Z,54.47
2024-02-24T12:16:58.029Z,54.07
2024-02-24T12:19:29.204Z,55.35
2024-02-24T12:21:56.404Z,55.47
2024-02-24T12:24:29.798Z,55.35
2024-02-24T12:27:01.739Z,55.29
2024-02-24T12:29:30.418Z,55.35
2024-02-24T12:31:57.159Z,56.17
2024-02-24T12:34:25.404Z,56.27
2024-02-24T12:36:58.289Z,55.26
2024-02-24T12:39:25.717Z,56.72
2024-02-24T12:41:55.640Z,54.05
2024-02-24T12:44:22.672Z,53.75
2024-02-24T12:46:49.652Z,55.49
2024-02-24T12:49:16.476Z,55.81
2024-02-24T12:51:51.266Z,55.44
2024-02-24T12:54:18.050Z,53.17
2024-02-24T12:56:44.826Z,53.18
2024-02-24T12:59:13.286Z,53.76
2024-02-24T13:01:40.269Z,53.50
2024-02-24T13:04:06.993Z,54.02
2024-02-24T13:06:33.954Z,54.42
2024-02-24T13:09:00.913Z,54.99
2024-02-24T13:11:27.739Z,54.87
2024-02-24T13:13:54.507Z,55.84
2024-02-24T13:16:21.165Z,55.94
2024-02-24T13:18:48.048Z,52.82
2024-02-24T13:21:14.779Z,56.26
2024-02-24T13:23:41.462Z,56.28
2024-02-24T13:26:08.151Z,57.16
2024-02-24T13:28:34.841Z,56.14
2024-02-24T13:31:01.522Z,56.40
2024-02-24T13:33:28.448Z,57.13
2024-02-24T13:35:55.423Z,56.07
2024-02-24T13:38:22.143Z,56.75
2024-02-24T13:40:48.984Z,57.34
2024-02-24T13:43:15.703Z,56.89
2024-02-24T13:45:42.908Z,56.99
2024-02-24T13:48:09.795Z,57.39
2024-02-24T13:50:36.639Z,57.43
2024-02-24T13:53:03.598Z,57.02
2024-02-24T13:55:30.283Z,56.96
2024-02-24T13:57:56.989Z,56.70
2024-02-24T14:00:23.736Z,57.22
2024-02-24T14:02:50.880Z,56.89
2024-02-24T14:05:17.880Z,56.92
2024-02-24T14:07:45.492Z,57.09
2024-02-24T14:10:12.245Z,58.06
2024-02-24T14:12:38.961Z,56.51
2024-02-24T14:15:06.067Z,56.89
2024-02-24T14:17:33.136Z,56.85
2024-02-24T14:20:05.544Z,54.80
2024-02-24T14:22:38.492Z,56.43
2024-02-24T14:25:05.638Z,56.24
2024-02-24T14:27:32.271Z,57.87
2024-02-24T14:29:59.029Z,56.37
2024-02-24T14:32:25.739Z,54.57
2024-02-24T14:34:52.687Z,54.25
2024-02-24T14:37:19.508Z,52.68
2024-02-24T14:39:46.237Z,52.81
2024-02-24T14:42:12.924Z,53.56
2024-02-24T14:44:39.705Z,54.08
2024-02-24T14:47:08.498Z,52.26
2024-02-24T14:49:35.534Z,52.76
2024-02-24T14:52:02.372Z,53.03
2024-02-24T14:54:29.152Z,52.72
2024-02-24T14:56:56.051Z,55.00
2024-02-24T14:59:22.998Z,57.07
2024-02-24T15:01:49.640Z,55.29
2024-02-24T15:04:16.534Z,54.16
2024-02-24T15:06:46.076Z,55.92
2024-02-24T15:09:13.209Z,54.39
2024-02-24T15:11:43.880Z,55.34
2024-02-24T15:14:11.018Z,55.27
2024-02-24T15:16:38.132Z,55.43
2024-02-24T15:19:05.060Z,54.87
2024-02-24T15:21:31.864Z,55.36
2024-02-24T15:23:58.760Z,57.06
2024-02-24T15:26:27.669Z,56.42
2024-02-24T15:28:55.128Z,56.46
2024-02-24T15:31:23.398Z,56.06
2024-02-24T15:33:50.283Z,55.10
2024-02-24T15:36:17.315Z,56.02
2024-02-24T15:38:44.318Z,57.44
2024-02-24T15:41:11.318Z,58.12
2024-02-24T15:43:38.739Z,57.57
2024-02-24T15:46:05.615Z,57.21
2024-02-24T15:48:32.622Z,60.30
2024-02-24T15:50:59.782Z,61.30
2024-02-24T15:53:26.904Z,61.89
2024-02-24T15:55:58.818Z,62.32
2024-02-24T15:58:25.846Z,63.07
2024-02-24T16:00:52.697Z,63.97
2024-02-24T16:03:19.641Z,64.32
2024-02-24T16:05:46.418Z,64.11
2024-02-24T16:08:13.293Z,64.65
2024-02-24T16:10:40.302Z,64.30
2024-02-24T16:13:11.557Z,64.68
2024-02-24T16:15:38.314Z,65.80
2024-02-24T16:18:05.937Z,65.55
2024-02-24T16:20:33.373Z,65.59
2024-02-24T16:23:01.115Z,65.44
2024-02-24T16:25:27.855Z,64.87
2024-02-24T16:27:54.819Z,65.19
2024-02-24T16:30:22.585Z,65.11
2024-02-24T16:32:50.914Z,64.26
2024-02-24T16:35:17.929Z,64.64
2024-02-24T16:37:44.896Z,64.87
2024-02-24T16:40:11.893Z,65.55
2024-02-24T16:42:39.145Z,66.29
2024-02-24T16:45:06.949Z,66.28
2024-02-24T16:47:33.899Z,67.17
2024-02-24T16:50:00.811Z,67.31
2024-02-24T16:52:27.646Z,67.88
2024-02-24T16:54:54.551Z,67.30
2024-02-24T16:57:21.631Z,67.10
2024-02-24T16:59:48.773Z,67.00
2024-02-24T17:02:15.630Z,67.66
2024-02-24T17:04:42.880Z,67.01
2024-02-24T17:07:09.837Z,67.16
2024-02-24T17:09:36.604Z,67.21
2024-02-24T17:12:04.324Z,68.55
2024-02-24T17:14:31.386Z,68.76
2024-02-24T17:16:58.196Z,70.19
2024-02-24T17:19:25.681Z,69.89
2024-02-24T17:21:52.698Z,70.10
2024-02-24T17:24:19.602Z,69.86
2024-02-24T17:26:47.523Z,70.85
2024-02-24T17:29:14.460Z,71.75
2024-02-24T17:31:41.198Z,72.23
2024-02-24T17:34:08.211Z,73.48
2024-02-24T17:36:39.933Z,72.19
2024-02-24T17:39:07.763Z,73.23
2024-02-24T17:41:34.477Z,72.75
2024-02-24T17:44:01.217Z,72.09
2024-02-24T17:46:28.260Z,72.14
2024-02-24T17:48:55.395Z,71.81
2024-02-24T17:51:22.282Z,70.27
2024-02-24T17:53:49.052Z,68.40
2024-02-24T17:56:15.880Z,67.57
2024-02-24T17:58:47.349Z,66.44
2024-02-24T18:01:14.944Z,65.29
2024-02-24T18:03:41.942Z,65.06
2024-02-24T18:06:08.859Z,65.17
2024-02-24T18:08:35.794Z,66.00
2024-02-24T18:11:02.524Z,66.00
2024-02-24T18:13:29.152Z,65.86
2024-02-24T18:15:55.832Z,66.95
2024-02-24T18:18:22.733Z,67.22
2024-02-24T18:20:49.508Z,66.59
2024-02-24T18:23:16.350Z,67.63
2024-02-24T18:25:43.090Z,67.76
2024-02-24T18:28:09.848Z,68.28
2024-02-24T18:30:36.611Z,67.63
2024-02-24T18:33:03.467Z,67.90
2024-02-24T18:35:30.344Z,69.10
2024-02-24T18:37:57.058Z,69.22
2024-02-24T18:40:23.715Z,68.99
2024-02-24T18:42:50.598Z,69.52
2024-02-24T18:45:17.459Z,70.23
2024-02-24T18:47:44.215Z,70.21
2024-02-24T18:50:11.438Z,69.68
2024-02-24T18:52:40.953Z,70.15
2024-02-24T18:55:08.113Z,71.11
2024-02-24T18:57:34.725Z,70.73
2024-02-24T19:00:01.634Z,70.94
2024-02-24T19:02:28.635Z,72.23
2024-02-24T19:04:55.545Z,72.13
2024-02-24T19:07:22.392Z,72.09
2024-02-24T19:09:49.112Z,72.41
2024-02-24T19:12:17.285Z,73.17
2024-02-24T19:14:51.580Z,72.72
2024-02-24T19:17:21.950Z,72.25
2024-02-24T19:19:50.553Z,72.73
2024-02-24T19:22:17.473Z,73.63
2024-02-24T19:24:44.382Z,73.37
2024-02-24T19:27:11.197Z,74.07
2024-02-24T19:29:39.938Z,73.95
2024-02-24T19:32:06.909Z,73.54
2024-02-24T19:34:33.746Z,72.74
2024-02-24T19:37:01.159Z,72.54
2024-02-24T19:39:27.946Z,72.22
2024-02-24T19:41:57.016Z,71.95
2024-02-24T19:44:26.097Z,72.22
2024-02-24T19:46:52.872Z,72.84
2024-02-24T19:49:19.932Z,72.09
2024-02-24T19:51:46.747Z,70.68
2024-02-24T19:54:13.610Z,70.54
2024-02-24T19:56:40.433Z,70.98
2024-02-24T19:59:07.201Z,69.48
2024-02-24T20:01:33.922Z,69.70
2024-02-24T20:04:00.795Z,69.08
2024-02-24T20:06:27.726Z,70.02
2024-02-24T20:08:55.958Z,71.84
2024-02-24T20:11:22.945Z,71.54
2024-02-24T20:13:49.725Z,72.45
2024-02-24T20:16:16.525Z,71.73
2024-02-24T20:18:46.148Z,71.56
2024-02-24T20:21:13.744Z,71.16
2024-02-24T20:23:40.533Z,71.91
2024-02-24T20:26:07.382Z,73.44
2024-02-24T20:28:34.299Z,74.37
2024-02-24T20:31:00.973Z,73.62
2024-02-24T20:33:28.003Z,74.18
2024-02-24T20:35:54.842Z,74.79
2024-02-24T20:38:21.543Z,75.76
2024-02-24T20:40:48.908Z,75.91
2024-02-24T20:43:16.744Z,76.35
2024-02-24T20:45:43.416Z,76.83
2024-02-24T20:48:11.249Z,77.14
2024-02-24T20:50:38.396Z,77.02
2024-02-24T20:53:05.367Z,75.22
2024-02-24T20:55:32.101Z,74.81
2024-02-24T20:57:59.138Z,74.57
2024-02-24T21:00:26.004Z,75.49
2024-02-24T21:02:52.836Z,74.28
2024-02-24T21:05:19.737Z,75.53
2024-02-24T21:07:46.403Z,74.76
2024-02-24T21:10:13.344Z,74.83
2024-02-24T21:12:40.125Z,76.27
2024-02-24T21:15:07.663Z,77.57
2024-02-24T21:17:34.822Z,77.49
2024-02-24T21:20:04.922Z,78.05
2024-02-24T21:22:33.334Z,78.18
2024-02-24T21:25:02.980Z,76.93
2024-02-24T21:27:30.257Z,76.36
2024-02-24T21:29:57.216Z,77.94
2024-02-24T21:32:24.100Z,76.27
2024-02-24T21:34:50.935Z,77.10
2024-02-24T21:37:21.489Z,76.25
2024-02-24T21:39:49.315Z,75.46
2024-02-24T21:42:16.435Z,76.13
2024-02-24T21:44:43.247Z,78.09
2024-02-24T21:47:10.110Z,77.28
2024-02-24T21:49:36.953Z,77.28
2024-02-24T21:52:06.527Z,77.93
2024-02-24T21:54:34.871Z,77.85
2024-02-24T21:57:01.866Z,78.39
2024-02-24T21:59:28.764Z,79.04
2024-02-24T22:01:55.585Z,78.56
2024-02-24T22:04:25.137Z,77.94
2024-02-24T22:06:55.233Z,78.05
2024-02-24T22:09:22.182Z,78.61
2024-02-24T22:11:49.025Z,77.14
2024-02-24T22:14:22.170Z,78.16
2024-02-24T22:16:49.709Z,78.29
2024-02-24T22:19:16.958Z,77.34
2024-02-24T22:21:43.884Z,76.62
2024-02-24T22:24:10.743Z,75.60
2024-02-24T22:26:37.738Z,73.59
2024-02-24T22:29:04.638Z,73.09
2024-02-24T22:31:31.293Z,71.82
2024-02-24T22:33:58.263Z,74.11
2024-02-24T22:36:25.142Z,73.68
2024-02-24T22:38:53.598Z,74.65
2024-02-24T22:41:24.163Z,73.95
2024-02-24T22:43:51.264Z,73.28
2024-02-24T22:46:21.721Z,72.86
2024-02-24T22:48:48.843Z,73.95
2024-02-24T22:51:16.572Z,73.13
2024-02-24T22:53:43.323Z,74.14
2024-02-24T22:56:10.020Z,75.90
2024-02-24T22:58:36.787Z,76.56
2024-02-24T23:01:03.972Z,77.66
2024-02-24T23:03:31.236Z,77.26
2024-02-24T23:05:58.094Z,76.32
2024-02-24T23:08:24.918Z,76.87
2024-02-24T23:10:51.724Z,76.44
2024-02-24T23:13:18.460Z,77.13
2024-02-24T23:15:45.086Z,78.31
2024-02-24T23:18:11.909Z,78.40
2024-02-24T23:20:38.697Z,70.10
2024-02-24T23:23:06.666Z,74.44
2024-02-24T23:25:33.459Z,74.51
2024-02-24T23:28:00.417Z,74.50
2024-02-24T23:30:27.144Z,76.37
2024-02-24T23:32:54.025Z,74.71
2024-02-24T23:35:20.892Z,73.76
2024-02-24T23:37:47.627Z,75.87
2024-02-24T23:40:14.566Z,77.20
2024-02-24T23:42:41.239Z,77.75
2024-02-24T23:45:08.226Z,76.73
2024-02-24T23:47:34.990Z,76.57
2024-02-24T23:50:02.031Z,77.60
2024-02-24T23:52:28.741Z,77.59
2024-02-24T23:54:56.253Z,78.02
2024-02-24T23:57:24.416Z,78.65
2024-02-24T23:59:51.240Z,79.39
